sensor_id;sensor_type;location;lat;lon;timestamp;temperature;humidity
30049;DHT22;16879;50.852;15.602;2022-09-09T00:00:46;14.60;99.90
30049;DHT22;16879;50.852;15.602;2022-09-09T00:03:21;14.60;99.90
30049;DHT22;16879;50.852;15.602;2022-09-09T00:06:04;14.50;99.90
30049;DHT22;16879;50.852;15.602;2022-09-09T00:11:09;14.30;99.90
30049;DHT22;16879;50.852;15.602;2022-09-09T00:13:45;14.30;99.90
30049;DHT22;16879;50.852;15.602;2022-09-09T00:16:14;14.30;99.90
30049;DHT22;16879;50.852;15.602;2022-09-09T00:22:20;14.10;99.90
30049;DHT22;16879;50.852;15.602;2022-09-09T00:24:50;14.00;99.90
30049;DHT22;16879;50.852;15.602;2022-09-09T00:27:41;14.00;99.90
30049;DHT22;16879;50.852;15.602;2022-09-09T00:32:46;13.90;99.90
30049;DHT22;16879;50.852;15.602;2022-09-09T00:35:21;13.80;99.90
30049;DHT22;16879;50.852;15.602;2022-09-09T00:37:50;13.80;99.90
30049;DHT22;16879;50.852;15.602;2022-09-09T00:40:29;13.80;99.90
30049;DHT22;16879;50.852;15.602;2022-09-09T00:59:51;13.50;99.90
30049;DHT22;16879;50.852;15.602;2022-09-09T01:02:39;13.40;99.90
30049;DHT22;16879;50.852;15.602;2022-09-09T01:05:14;13.40;99.90
30049;DHT22;16879;50.852;15.602;2022-09-09T01:07:46;13.40;99.90
30049;DHT22;16879;50.852;15.602;2022-09-09T01:10:50;13.40;99.90
30049;DHT22;16879;50.852;15.602;2022-09-09T01:13:29;13.30;99.90
30049;DHT22;16879;50.852;15.602;2022-09-09T01:15:58;13.30;99.90
30049;DHT22;16879;50.852;15.602;2022-09-09T01:18:31;13.40;99.90
30049;DHT22;16879;50.852;15.602;2022-09-09T01:26:42;13.30;99.90
30049;DHT22;16879;50.852;15.602;2022-09-09T01:29:14;13.20;99.90
30049;DHT22;16879;50.852;15.602;2022-09-09T01:31:41;13.20;99.90
30049;DHT22;16879;50.852;15.602;2022-09-09T01:34:11;13.20;99.90
30049;DHT22;16879;50.852;15.602;2022-09-09T01:37:08;13.20;99.90
30049;DHT22;16879;50.852;15.602;2022-09-09T01:39:36;13.20;99.90
30049;DHT22;16879;50.852;15.602;2022-09-09T01:42:04;13.20;99.90
30049;DHT22;16879;50.852;15.602;2022-09-09T01:44:31;13.20;99.90
30049;DHT22;16879;50.852;15.602;2022-09-09T01:46:57;13.20;99.90
30049;DHT22;16879;50.852;15.602;2022-09-09T01:49:23;13.20;99.90
30049;DHT22;16879;50.852;15.602;2022-09-09T01:51:52;13.20;99.90
30049;DHT22;16879;50.852;15.602;2022-09-09T01:54:20;13.20;99.90
30049;DHT22;16879;50.852;15.602;2022-09-09T01:57:27;13.20;99.90
30049;DHT22;16879;50.852;15.602;2022-09-09T02:00:06;13.10;99.90
30049;DHT22;16879;50.852;15.602;2022-09-09T02:08:09;13.00;99.90
30049;DHT22;16879;50.852;15.602;2022-09-09T02:13:32;12.90;99.90
30049;DHT22;16879;50.852;15.602;2022-09-09T02:21:30;12.70;99.90
30049;DHT22;16879;50.852;15.602;2022-09-09T02:23:59;12.80;99.90
30049;DHT22;16879;50.852;15.602;2022-09-09T02:26:32;12.70;99.90
30049;DHT22;16879;50.852;15.602;2022-09-09T02:29:03;12.70;99.90
30049;DHT22;16879;50.852;15.602;2022-09-09T02:31:31;12.60;99.90
30049;DHT22;16879;50.852;15.602;2022-09-09T02:34:01;12.60;99.90
30049;DHT22;16879;50.852;15.602;2022-09-09T02:36:31;12.60;99.90
30049;DHT22;16879;50.852;15.602;2022-09-09T02:39:00;12.60;99.90
30049;DHT22;16879;50.852;15.602;2022-09-09T02:41:31;12.60;99.90
30049;DHT22;16879;50.852;15.602;2022-09-09T02:43:57;12.50;99.90
30049;DHT22;16879;50.852;15.602;2022-09-09T02:52:20;12.40;99.90
30049;DHT22;16879;50.852;15.602;2022-09-09T02:54:49;12.40;99.90
30049;DHT22;16879;50.852;15.602;2022-09-09T02:59:46;12.30;99.90
30049;DHT22;16879;50.852;15.602;2022-09-09T03:02:13;12.30;99.90
30049;DHT22;16879;50.852;15.602;2022-09-09T03:04:39;12.20;99.90
30049;DHT22;16879;50.852;15.602;2022-09-09T03:07:07;12.20;99.90
30049;DHT22;16879;50.852;15.602;2022-09-09T03:09:33;12.10;99.90
30049;DHT22;16879;50.852;15.602;2022-09-09T03:11:59;12.10;99.90
30049;DHT22;16879;50.852;15.602;2022-09-09T03:14:25;12.10;99.90
30049;DHT22;16879;50.852;15.602;2022-09-09T03:16:52;12.10;99.90
30049;DHT22;16879;50.852;15.602;2022-09-09T03:19:19;12.00;99.90
30049;DHT22;16879;50.852;15.602;2022-09-09T03:21:46;12.00;99.90
30049;DHT22;16879;50.852;15.602;2022-09-09T03:24:13;12.00;99.90
30049;DHT22;16879;50.852;15.602;2022-09-09T03:29:07;12.00;99.90
30049;DHT22;16879;50.852;15.602;2022-09-09T03:31:34;12.00;99.90
30049;DHT22;16879;50.852;15.602;2022-09-09T03:38:54;11.90;99.90
30049;DHT22;16879;50.852;15.602;2022-09-09T03:41:21;11.90;99.90
30049;DHT22;16879;50.852;15.602;2022-09-09T03:43:52;11.90;99.90
30049;DHT22;16879;50.852;15.602;2022-09-09T03:46:23;11.80;99.90
30049;DHT22;16879;50.852;15.602;2022-09-09T03:48:50;11.80;99.90
30049;DHT22;16879;50.852;15.602;2022-09-09T03:51:16;11.80;99.90
30049;DHT22;16879;50.852;15.602;2022-09-09T03:53:42;11.80;99.90
30049;DHT22;16879;50.852;15.602;2022-09-09T03:56:08;11.80;99.90
30049;DHT22;16879;50.852;15.602;2022-09-09T03:58:36;11.70;99.90
30049;DHT22;16879;50.852;15.602;2022-09-09T04:01:07;11.70;99.90
30049;DHT22;16879;50.852;15.602;2022-09-09T04:03:39;11.60;99.90
30049;DHT22;16879;50.852;15.602;2022-09-09T04:06:07;11.60;99.90
30049;DHT22;16879;50.852;15.602;2022-09-09T04:08:33;11.50;99.90
30049;DHT22;16879;50.852;15.602;2022-09-09T04:11:01;11.50;99.90
30049;DHT22;16879;50.852;15.602;2022-09-09T04:13:35;11.40;99.90
30049;DHT22;16879;50.852;15.602;2022-09-09T04:16:03;11.40;99.90
30049;DHT22;16879;50.852;15.602;2022-09-09T04:18:29;11.40;99.90
30049;DHT22;16879;50.852;15.602;2022-09-09T04:20:56;11.40;99.90
30049;DHT22;16879;50.852;15.602;2022-09-09T04:23:24;11.30;99.90
30049;DHT22;16879;50.852;15.602;2022-09-09T04:25:52;11.30;99.90
30049;DHT22;16879;50.852;15.602;2022-09-09T04:28:20;11.30;99.90
30049;DHT22;16879;50.852;15.602;2022-09-09T04:33:13;11.30;99.90
30049;DHT22;16879;50.852;15.602;2022-09-09T04:35:43;11.20;99.90
30049;DHT22;16879;50.852;15.602;2022-09-09T04:38:09;11.20;99.90
30049;DHT22;16879;50.852;15.602;2022-09-09T04:40:35;11.20;99.90
30049;DHT22;16879;50.852;15.602;2022-09-09T04:43:02;11.10;99.90
30049;DHT22;16879;50.852;15.602;2022-09-09T04:45:31;11.10;99.90
30049;DHT22;16879;50.852;15.602;2022-09-09T04:47:58;11.10;99.90
30049;DHT22;16879;50.852;15.602;2022-09-09T04:50:24;11.10;99.90
30049;DHT22;16879;50.852;15.602;2022-09-09T04:57:43;11.20;99.90
30049;DHT22;16879;50.852;15.602;2022-09-09T05:00:10;11.30;99.90
30049;DHT22;16879;50.852;15.602;2022-09-09T05:02:39;11.30;99.90
30049;DHT22;16879;50.852;15.602;2022-09-09T05:05:06;11.30;99.90
30049;DHT22;16879;50.852;15.602;2022-09-09T05:07:32;11.40;99.90
30049;DHT22;16879;50.852;15.602;2022-09-09T05:09:58;11.40;99.90
30049;DHT22;16879;50.852;15.602;2022-09-09T05:12:24;11.40;99.90
30049;DHT22;16879;50.852;15.602;2022-09-09T05:14:51;11.50;99.90
30049;DHT22;16879;50.852;15.602;2022-09-09T05:17:17;11.50;99.90
30049;DHT22;16879;50.852;15.602;2022-09-09T05:19:43;11.60;99.90
30049;DHT22;16879;50.852;15.602;2022-09-09T05:22:10;11.70;99.90
30049;DHT22;16879;50.852;15.602;2022-09-09T05:24:38;11.70;99.90
30049;DHT22;16879;50.852;15.602;2022-09-09T05:27:06;11.80;99.90
30049;DHT22;16879;50.852;15.602;2022-09-09T05:29:32;11.90;99.90
30049;DHT22;16879;50.852;15.602;2022-09-09T05:32:01;11.90;99.90
30049;DHT22;16879;50.852;15.602;2022-09-09T05:34:27;12.00;99.90
30049;DHT22;16879;50.852;15.602;2022-09-09T05:36:52;12.10;99.90
30049;DHT22;16879;50.852;15.602;2022-09-09T05:39:19;12.20;99.90
30049;DHT22;16879;50.852;15.602;2022-09-09T05:41:44;12.30;99.90
30049;DHT22;16879;50.852;15.602;2022-09-09T05:44:10;12.30;99.90
30049;DHT22;16879;50.852;15.602;2022-09-09T05:46:36;12.40;99.90
30049;DHT22;16879;50.852;15.602;2022-09-09T05:49:02;12.40;99.90
30049;DHT22;16879;50.852;15.602;2022-09-09T05:51:29;12.50;99.90
30049;DHT22;16879;50.852;15.602;2022-09-09T05:53:58;12.50;99.90
30049;DHT22;16879;50.852;15.602;2022-09-09T05:56:26;12.50;99.90
30049;DHT22;16879;50.852;15.602;2022-09-09T05:58:54;12.60;99.90
30049;DHT22;16879;50.852;15.602;2022-09-09T06:03:47;12.60;99.90
30049;DHT22;16879;50.852;15.602;2022-09-09T06:06:16;12.60;99.90
30049;DHT22;16879;50.852;15.602;2022-09-09T06:08:44;12.50;99.90
30049;DHT22;16879;50.852;15.602;2022-09-09T06:11:16;12.50;99.90
30049;DHT22;16879;50.852;15.602;2022-09-09T06:13:42;12.50;99.90
30049;DHT22;16879;50.852;15.602;2022-09-09T06:16:19;12.60;99.90
30049;DHT22;16879;50.852;15.602;2022-09-09T06:21:36;12.60;99.90
30049;DHT22;16879;50.852;15.602;2022-09-09T06:24:03;12.60;99.90
30049;DHT22;16879;50.852;15.602;2022-09-09T06:26:37;12.70;99.90
30049;DHT22;16879;50.852;15.602;2022-09-09T06:29:06;12.70;99.90
30049;DHT22;16879;50.852;15.602;2022-09-09T06:31:34;12.70;99.90
30049;DHT22;16879;50.852;15.602;2022-09-09T06:34:00;12.80;99.90
30049;DHT22;16879;50.852;15.602;2022-09-09T06:36:31;12.80;99.90
30049;DHT22;16879;50.852;15.602;2022-09-09T06:41:26;12.90;99.90
30049;DHT22;16879;50.852;15.602;2022-09-09T06:43:52;12.90;99.90
30049;DHT22;16879;50.852;15.602;2022-09-09T06:46:20;13.00;99.90
30049;DHT22;16879;50.852;15.602;2022-09-09T06:48:50;13.00;99.90
30049;DHT22;16879;50.852;15.602;2022-09-09T06:51:20;13.10;99.90
30049;DHT22;16879;50.852;15.602;2022-09-09T06:53:53;13.20;99.90
30049;DHT22;16879;50.852;15.602;2022-09-09T06:56:28;13.30;99.90
30049;DHT22;16879;50.852;15.602;2022-09-09T06:59:14;13.30;99.90
30049;DHT22;16879;50.852;15.602;2022-09-09T07:01:41;13.40;99.90
30049;DHT22;16879;50.852;15.602;2022-09-09T07:04:08;13.40;99.90
30049;DHT22;16879;50.852;15.602;2022-09-09T07:06:42;13.40;99.90
30049;DHT22;16879;50.852;15.602;2022-09-09T07:09:11;13.50;99.90
30049;DHT22;16879;50.852;15.602;2022-09-09T07:11:45;13.60;99.90
30049;DHT22;16879;50.852;15.602;2022-09-09T07:14:11;13.60;99.90
30049;DHT22;16879;50.852;15.602;2022-09-09T07:16:43;13.60;99.90
30049;DHT22;16879;50.852;15.602;2022-09-09T07:19:10;13.70;99.90
30049;DHT22;16879;50.852;15.602;2022-09-09T07:21:36;13.70;99.90
30049;DHT22;16879;50.852;15.602;2022-09-09T07:24:02;13.80;99.90
30049;DHT22;16879;50.852;15.602;2022-09-09T07:26:30;13.80;99.90
30049;DHT22;16879;50.852;15.602;2022-09-09T07:28:56;13.90;99.90
30049;DHT22;16879;50.852;15.602;2022-09-09T07:31:27;13.90;99.90
30049;DHT22;16879;50.852;15.602;2022-09-09T07:33:56;14.00;99.90
30049;DHT22;16879;50.852;15.602;2022-09-09T07:36:24;14.00;99.90
30049;DHT22;16879;50.852;15.602;2022-09-09T07:38:54;14.10;99.90
30049;DHT22;16879;50.852;15.602;2022-09-09T07:41:24;14.20;99.90
30049;DHT22;16879;50.852;15.602;2022-09-09T07:43:51;14.30;99.90
30049;DHT22;16879;50.852;15.602;2022-09-09T07:46:20;14.40;99.90
30049;DHT22;16879;50.852;15.602;2022-09-09T07:49:05;16.40;99.90
30049;DHT22;16879;50.852;15.602;2022-09-09T07:51:37;14.60;99.90
30049;DHT22;16879;50.852;15.602;2022-09-09T07:54:10;14.80;99.90
30049;DHT22;16879;50.852;15.602;2022-09-09T07:56:37;14.90;99.90
30049;DHT22;16879;50.852;15.602;2022-09-09T07:59:04;15.00;99.90
30049;DHT22;16879;50.852;15.602;2022-09-09T08:01:34;15.10;99.90
30049;DHT22;16879;50.852;15.602;2022-09-09T08:04:07;15.20;99.90
30049;DHT22;16879;50.852;15.602;2022-09-09T08:06:37;15.40;99.90
30049;DHT22;16879;50.852;15.602;2022-09-09T08:09:04;15.40;99.90
30049;DHT22;16879;50.852;15.602;2022-09-09T08:11:30;15.60;99.90
30049;DHT22;16879;50.852;15.602;2022-09-09T08:16:26;16.00;99.90
30049;DHT22;16879;50.852;15.602;2022-09-09T08:18:52;16.10;99.90
30049;DHT22;16879;50.852;15.602;2022-09-09T08:21:23;16.20;99.90
30049;DHT22;16879;50.852;15.602;2022-09-09T08:23:51;16.30;99.90
30049;DHT22;16879;50.852;15.602;2022-09-09T08:26:20;16.50;99.90
30049;DHT22;16879;50.852;15.602;2022-09-09T08:28:51;16.60;99.90
30049;DHT22;16879;50.852;15.602;2022-09-09T08:31:35;16.70;99.90
30049;DHT22;16879;50.852;15.602;2022-09-09T08:34:01;16.80;99.90
30049;DHT22;16879;50.852;15.602;2022-09-09T08:36:33;16.80;99.90
30049;DHT22;16879;50.852;15.602;2022-09-09T08:39:00;17.00;99.90
30049;DHT22;16879;50.852;15.602;2022-09-09T08:58:21;18.00;99.90
30049;DHT22;16879;50.852;15.602;2022-09-09T09:01:09;18.20;99.90
30049;DHT22;16879;50.852;15.602;2022-09-09T09:12:01;18.60;99.90
30049;DHT22;16879;50.852;15.602;2022-09-09T09:14:33;18.60;99.90
30049;DHT22;16879;50.852;15.602;2022-09-09T09:19:30;18.70;99.90
30049;DHT22;16879;50.852;15.602;2022-09-09T09:22:41;18.70;99.90
30049;DHT22;16879;50.852;15.602;2022-09-09T09:25:17;18.80;99.90
30049;DHT22;16879;50.852;15.602;2022-09-09T09:28:32;19.00;99.90
30049;DHT22;16879;50.852;15.602;2022-09-09T09:33:31;19.30;99.90
30049;DHT22;16879;50.852;15.602;2022-09-09T09:38:27;19.50;99.90
30049;DHT22;16879;50.852;15.602;2022-09-09T09:40:58;19.60;99.90
30049;DHT22;16879;50.852;15.602;2022-09-09T09:43:35;19.70;99.90
30049;DHT22;16879;50.852;15.602;2022-09-09T09:46:04;19.80;99.90
30049;DHT22;16879;50.852;15.602;2022-09-09T09:48:30;19.90;99.90
30049;DHT22;16879;50.852;15.602;2022-09-09T09:51:13;20.00;99.90
30049;DHT22;16879;50.852;15.602;2022-09-09T09:53:42;20.00;99.90
30049;DHT22;16879;50.852;15.602;2022-09-09T09:56:11;20.10;99.90
30049;DHT22;16879;50.852;15.602;2022-09-09T09:58:49;20.20;99.90
30049;DHT22;16879;50.852;15.602;2022-09-09T10:01:34;20.30;99.90
30049;DHT22;16879;50.852;15.602;2022-09-09T10:04:23;20.30;99.90
30049;DHT22;16879;50.852;15.602;2022-09-09T10:06:50;20.40;99.90
30049;DHT22;16879;50.852;15.602;2022-09-09T10:09:28;20.50;99.90
30049;DHT22;16879;50.852;15.602;2022-09-09T10:12:24;20.60;99.90
30049;DHT22;16879;50.852;15.602;2022-09-09T10:23:20;20.80;99.90
30049;DHT22;16879;50.852;15.602;2022-09-09T10:36:49;21.00;99.90
30049;DHT22;16879;50.852;15.602;2022-09-09T10:42:15;21.20;99.90
30049;DHT22;16879;50.852;15.602;2022-09-09T10:47:33;21.40;99.90
30049;DHT22;16879;50.852;15.602;2022-09-09T10:50:33;21.40;99.90
30049;DHT22;16879;50.852;15.602;2022-09-09T10:55:50;21.60;99.90
30049;DHT22;16879;50.852;15.602;2022-09-09T10:58:25;21.60;99.90
30049;DHT22;16879;50.852;15.602;2022-09-09T11:01:03;21.60;99.90
30049;DHT22;16879;50.852;15.602;2022-09-09T11:03:36;21.70;99.90
30049;DHT22;16879;50.852;15.602;2022-09-09T11:06:06;21.80;99.90
30049;DHT22;16879;50.852;15.602;2022-09-09T11:08:38;22.00;99.90
30049;DHT22;16879;50.852;15.602;2022-09-09T11:11:46;21.90;99.90
30049;DHT22;16879;50.852;15.602;2022-09-09T11:14:41;22.00;99.90
30049;DHT22;16879;50.852;15.602;2022-09-09T11:17:15;22.00;99.90
30049;DHT22;16879;50.852;15.602;2022-09-09T11:19:44;22.10;99.90
30049;DHT22;16879;50.852;15.602;2022-09-09T11:22:33;22.10;99.90
30049;DHT22;16879;50.852;15.602;2022-09-09T11:25:07;22.20;99.90
30049;DHT22;16879;50.852;15.602;2022-09-09T11:33:51;22.50;99.90
30049;DHT22;16879;50.852;15.602;2022-09-09T11:44:28;22.80;99.90
30049;DHT22;16879;50.852;15.602;2022-09-09T11:46:55;22.80;99.90
30049;DHT22;16879;50.852;15.602;2022-09-09T11:49:29;22.70;99.90
30049;DHT22;16879;50.852;15.602;2022-09-09T11:52:21;22.70;99.90
30049;DHT22;16879;50.852;15.602;2022-09-09T11:54:49;22.60;99.90
30049;DHT22;16879;50.852;15.602;2022-09-09T11:57:30;22.70;99.90
30049;DHT22;16879;50.852;15.602;2022-09-09T11:59:58;22.70;99.90
30049;DHT22;16879;50.852;15.602;2022-09-09T12:02:27;22.80;99.90
30049;DHT22;16879;50.852;15.602;2022-09-09T12:05:10;22.80;99.90
30049;DHT22;16879;50.852;15.602;2022-09-09T12:07:52;22.90;99.90
30049;DHT22;16879;50.852;15.602;2022-09-09T12:12:48;22.60;99.90
30049;DHT22;16879;50.852;15.602;2022-09-09T12:15:23;22.60;99.90
30049;DHT22;16879;50.852;15.602;2022-09-09T12:17:53;22.50;99.90
30049;DHT22;16879;50.852;15.602;2022-09-09T12:23:50;22.60;99.90
30049;DHT22;16879;50.852;15.602;2022-09-09T12:32:07;22.60;99.90
30049;DHT22;16879;50.852;15.602;2022-09-09T12:34:41;22.60;99.90
30049;DHT22;16879;50.852;15.602;2022-09-09T12:37:37;22.60;99.90
30049;DHT22;16879;50.852;15.602;2022-09-09T12:40:06;22.60;99.90
30049;DHT22;16879;50.852;15.602;2022-09-09T12:42:32;22.70;99.90
30049;DHT22;16879;50.852;15.602;2022-09-09T12:45:03;22.80;99.90
30049;DHT22;16879;50.852;15.602;2022-09-09T12:47:39;22.80;99.90
30049;DHT22;16879;50.852;15.602;2022-09-09T12:50:26;22.80;99.90
30049;DHT22;16879;50.852;15.602;2022-09-09T12:52:59;22.90;99.90
30049;DHT22;16879;50.852;15.602;2022-09-09T12:55:32;23.00;99.90
30049;DHT22;16879;50.852;15.602;2022-09-09T12:58:00;23.10;99.90
30049;DHT22;16879;50.852;15.602;2022-09-09T13:00:30;23.30;99.90
30049;DHT22;16879;50.852;15.602;2022-09-09T13:02:58;23.40;99.90
30049;DHT22;16879;50.852;15.602;2022-09-09T13:05:26;23.40;99.90
30049;DHT22;16879;50.852;15.602;2022-09-09T13:08:00;23.40;99.90
30049;DHT22;16879;50.852;15.602;2022-09-09T13:10:29;23.30;99.90
30049;DHT22;16879;50.852;15.602;2022-09-09T13:12:57;23.30;99.90
30049;DHT22;16879;50.852;15.602;2022-09-09T13:15:26;23.10;99.90
30049;DHT22;16879;50.852;15.602;2022-09-09T13:17:55;23.00;99.90
30049;DHT22;16879;50.852;15.602;2022-09-09T13:20:22;22.90;99.90
30049;DHT22;16879;50.852;15.602;2022-09-09T13:22:49;22.80;99.90
30049;DHT22;16879;50.852;15.602;2022-09-09T13:25:27;22.70;99.90
30049;DHT22;16879;50.852;15.602;2022-09-09T13:28:02;22.70;99.90
30049;DHT22;16879;50.852;15.602;2022-09-09T13:30:38;22.70;99.90
30049;DHT22;16879;50.852;15.602;2022-09-09T13:35:54;22.60;99.90
30049;DHT22;16879;50.852;15.602;2022-09-09T13:38:21;22.50;99.90
30049;DHT22;16879;50.852;15.602;2022-09-09T13:41:18;22.40;99.90
30049;DHT22;16879;50.852;15.602;2022-09-09T13:43:47;22.30;99.90
30049;DHT22;16879;50.852;15.602;2022-09-09T13:46:36;22.30;99.90
30049;DHT22;16879;50.852;15.602;2022-09-09T13:52:03;22.10;99.90
30049;DHT22;16879;50.852;15.602;2022-09-09T13:56:56;22.10;99.90
30049;DHT22;16879;50.852;15.602;2022-09-09T13:59:44;22.00;99.90
30049;DHT22;16879;50.852;15.602;2022-09-09T14:02:10;22.00;99.90
30049;DHT22;16879;50.852;15.602;2022-09-09T14:04:36;22.00;99.90
30049;DHT22;16879;50.852;15.602;2022-09-09T14:07:02;22.00;99.90
30049;DHT22;16879;50.852;15.602;2022-09-09T14:09:28;22.00;99.90
30049;DHT22;16879;50.852;15.602;2022-09-09T14:11:54;21.90;99.90
30049;DHT22;16879;50.852;15.602;2022-09-09T14:16:50;21.90;99.90
30049;DHT22;16879;50.852;15.602;2022-09-09T14:19:16;21.90;99.90
30049;DHT22;16879;50.852;15.602;2022-09-09T14:29:02;21.80;99.90
30049;DHT22;16879;50.852;15.602;2022-09-09T14:31:28;21.70;99.90
30049;DHT22;16879;50.852;15.602;2022-09-09T14:33:54;21.70;99.90
30049;DHT22;16879;50.852;15.602;2022-09-09T14:38:46;21.70;99.90
30049;DHT22;16879;50.852;15.602;2022-09-09T14:41:51;21.70;99.90
30049;DHT22;16879;50.852;15.602;2022-09-09T14:51:36;21.60;99.90
30049;DHT22;16879;50.852;15.602;2022-09-09T14:54:22;21.60;99.90
30049;DHT22;16879;50.852;15.602;2022-09-09T14:56:52;21.60;99.90
30049;DHT22;16879;50.852;15.602;2022-09-09T14:59:19;21.50;99.90
30049;DHT22;16879;50.852;15.602;2022-09-09T15:01:44;21.50;99.90
30049;DHT22;16879;50.852;15.602;2022-09-09T15:04:32;21.50;99.90
30049;DHT22;16879;50.852;15.602;2022-09-09T15:09:49;21.40;99.90
30049;DHT22;16879;50.852;15.602;2022-09-09T15:14:57;21.40;99.90
30049;DHT22;16879;50.852;15.602;2022-09-09T15:17:38;21.40;99.90
30049;DHT22;16879;50.852;15.602;2022-09-09T15:20:06;21.30;99.90
30049;DHT22;16879;50.852;15.602;2022-09-09T15:22:32;21.30;99.90
30049;DHT22;16879;50.852;15.602;2022-09-09T15:24:59;21.30;99.90
30049;DHT22;16879;50.852;15.602;2022-09-09T15:29:52;21.20;99.90
30049;DHT22;16879;50.852;15.602;2022-09-09T15:32:18;21.30;99.90
30049;DHT22;16879;50.852;15.602;2022-09-09T15:34:45;21.30;99.90
30049;DHT22;16879;50.852;15.602;2022-09-09T15:39:40;21.20;99.90
30049;DHT22;16879;50.852;15.602;2022-09-09T15:42:09;21.20;99.90
30049;DHT22;16879;50.852;15.602;2022-09-09T15:44:52;21.10;99.90
30049;DHT22;16879;50.852;15.602;2022-09-09T15:47:18;21.20;99.90
30049;DHT22;16879;50.852;15.602;2022-09-09T15:52:10;21.20;99.90
30049;DHT22;16879;50.852;15.602;2022-09-09T15:57:11;21.10;99.90
30049;DHT22;16879;50.852;15.602;2022-09-09T15:59:38;21.10;99.90
30049;DHT22;16879;50.852;15.602;2022-09-09T16:02:04;21.10;99.90
30049;DHT22;16879;50.852;15.602;2022-09-09T16:04:31;21.00;99.90
30049;DHT22;16879;50.852;15.602;2022-09-09T16:06:59;21.00;99.90
30049;DHT22;16879;50.852;15.602;2022-09-09T16:09:26;20.90;99.90
30049;DHT22;16879;50.852;15.602;2022-09-09T16:14:19;20.70;99.90
30049;DHT22;16879;50.852;15.602;2022-09-09T16:16:45;20.70;99.90
30049;DHT22;16879;50.852;15.602;2022-09-09T16:19:12;20.50;99.90
30049;DHT22;16879;50.852;15.602;2022-09-09T16:21:43;20.50;99.90
30049;DHT22;16879;50.852;15.602;2022-09-09T16:24:11;20.50;99.90
30049;DHT22;16879;50.852;15.602;2022-09-09T16:26:40;20.50;99.90
30049;DHT22;16879;50.852;15.602;2022-09-09T16:31:34;20.60;99.90
30049;DHT22;16879;50.852;15.602;2022-09-09T16:34:00;20.50;99.90
30049;DHT22;16879;50.852;15.602;2022-09-09T16:36:29;20.40;99.90
30049;DHT22;16879;50.852;15.602;2022-09-09T16:39:01;20.00;99.90
30049;DHT22;16879;50.852;15.602;2022-09-09T16:41:29;19.80;99.90
30049;DHT22;16879;50.852;15.602;2022-09-09T16:43:59;19.60;99.90
30049;DHT22;16879;50.852;15.602;2022-09-09T16:46:26;19.50;99.90
30049;DHT22;16879;50.852;15.602;2022-09-09T16:48:53;19.50;99.90
30049;DHT22;16879;50.852;15.602;2022-09-09T16:51:35;19.30;99.90
30049;DHT22;16879;50.852;15.602;2022-09-09T16:54:04;19.20;99.90
30049;DHT22;16879;50.852;15.602;2022-09-09T16:56:33;19.20;99.90
30049;DHT22;16879;50.852;15.602;2022-09-09T16:59:02;19.10;99.90
30049;DHT22;16879;50.852;15.602;2022-09-09T17:01:31;19.00;99.90
30049;DHT22;16879;50.852;15.602;2022-09-09T17:04:00;19.00;99.90
30049;DHT22;16879;50.852;15.602;2022-09-09T17:06:30;18.90;99.90
30049;DHT22;16879;50.852;15.602;2022-09-09T17:08:58;18.80;99.90
30049;DHT22;16879;50.852;15.602;2022-09-09T17:11:25;18.70;99.90
30049;DHT22;16879;50.852;15.602;2022-09-09T17:13:52;18.60;99.90
30049;DHT22;16879;50.852;15.602;2022-09-09T17:16:20;18.50;99.90
30049;DHT22;16879;50.852;15.602;2022-09-09T17:18:50;18.40;99.90
30049;DHT22;16879;50.852;15.602;2022-09-09T17:21:18;18.30;99.90
30049;DHT22;16879;50.852;15.602;2022-09-09T17:23:45;18.30;99.90
30049;DHT22;16879;50.852;15.602;2022-09-09T17:26:14;18.20;99.90
30049;DHT22;16879;50.852;15.602;2022-09-09T17:28:41;18.20;99.90
30049;DHT22;16879;50.852;15.602;2022-09-09T17:31:09;18.10;99.90
30049;DHT22;16879;50.852;15.602;2022-09-09T17:33:38;18.10;99.90
30049;DHT22;16879;50.852;15.602;2022-09-09T17:36:10;18.00;99.90
30049;DHT22;16879;50.852;15.602;2022-09-09T17:38:37;18.00;99.90
30049;DHT22;16879;50.852;15.602;2022-09-09T17:41:28;17.90;99.90
30049;DHT22;16879;50.852;15.602;2022-09-09T17:43:55;17.80;99.90
30049;DHT22;16879;50.852;15.602;2022-09-09T17:46:24;17.80;99.90
30049;DHT22;16879;50.852;15.602;2022-09-09T17:48:58;17.80;99.90
30049;DHT22;16879;50.852;15.602;2022-09-09T17:51:25;17.70;99.90
30049;DHT22;16879;50.852;15.602;2022-09-09T17:53:55;17.60;99.90
30049;DHT22;16879;50.852;15.602;2022-09-09T17:56:22;17.60;99.90
30049;DHT22;16879;50.852;15.602;2022-09-09T17:58:49;17.60;99.90
30049;DHT22;16879;50.852;15.602;2022-09-09T18:01:18;17.50;99.90
30049;DHT22;16879;50.852;15.602;2022-09-09T18:03:45;17.50;99.90
30049;DHT22;16879;50.852;15.602;2022-09-09T18:06:20;17.50;99.90
30049;DHT22;16879;50.852;15.602;2022-09-09T18:08:48;17.50;99.90
30049;DHT22;16879;50.852;15.602;2022-09-09T18:11:15;17.50;99.90
30049;DHT22;16879;50.852;15.602;2022-09-09T18:16:08;17.40;99.90
30049;DHT22;16879;50.852;15.602;2022-09-09T18:21:06;17.30;99.90
30049;DHT22;16879;50.852;15.602;2022-09-09T18:23:37;17.20;99.90
30049;DHT22;16879;50.852;15.602;2022-09-09T18:26:11;17.20;99.90
30049;DHT22;16879;50.852;15.602;2022-09-09T18:28:38;17.20;99.90
30049;DHT22;16879;50.852;15.602;2022-09-09T18:31:12;17.00;99.90
30049;DHT22;16879;50.852;15.602;2022-09-09T18:33:41;17.00;99.90
30049;DHT22;16879;50.852;15.602;2022-09-09T18:36:13;16.90;99.90
30049;DHT22;16879;50.852;15.602;2022-09-09T18:38:40;16.90;99.90
30049;DHT22;16879;50.852;15.602;2022-09-09T18:41:17;16.80;99.90
30049;DHT22;16879;50.852;15.602;2022-09-09T18:43:43;16.70;99.90
30049;DHT22;16879;50.852;15.602;2022-09-09T18:46:13;16.70;99.90
30049;DHT22;16879;50.852;15.602;2022-09-09T18:48:41;16.70;99.90
30049;DHT22;16879;50.852;15.602;2022-09-09T18:51:11;16.70;99.90
30049;DHT22;16879;50.852;15.602;2022-09-09T18:53:37;16.70;99.90
30049;DHT22;16879;50.852;15.602;2022-09-09T18:56:07;16.70;99.90
30049;DHT22;16879;50.852;15.602;2022-09-09T18:58:34;16.70;99.90
30049;DHT22;16879;50.852;15.602;2022-09-09T19:01:02;16.70;99.90
30049;DHT22;16879;50.852;15.602;2022-09-09T19:03:30;16.70;99.90
30049;DHT22;16879;50.852;15.602;2022-09-09T19:06:05;16.70;99.90
30049;DHT22;16879;50.852;15.602;2022-09-09T19:08:36;16.70;99.90
30049;DHT22;16879;50.852;15.602;2022-09-09T19:11:07;16.60;99.90
30049;DHT22;16879;50.852;15.602;2022-09-09T19:13:34;16.60;99.90
30049;DHT22;16879;50.852;15.602;2022-09-09T19:16:10;16.60;99.90